createdAt,value
2019-03-19T00:01:28.845Z,0.50
2019-03-19T00:03:58.821Z,0.70
2019-03-19T00:06:28.831Z,0.50
2019-03-19T00:08:58.755Z,0.40
2019-03-19T00:11:29.031Z,0.77
2019-03-19T00:13:59.061Z,0.53
2019-03-19T00:16:28.955Z,0.60
2019-03-19T00:18:58.958Z,0.30
2019-03-19T00:21:28.984Z,0.40
2019-03-19T00:23:59.345Z,0.57
2019-03-19T00:26:29.683Z,0.20
2019-03-19T00:28:59.809Z,0.37
2019-03-19T00:31:29.759Z,0.40
2019-03-19T00:33:59.795Z,0.70
2019-03-19T00:36:29.784Z,0.40
2019-03-19T00:38:59.790Z,0.40
2019-03-19T00:41:30.290Z,0.20
2019-03-19T00:44:00.286Z,0.37
2019-03-19T00:46:30.198Z,0.60
2019-03-19T00:49:00.080Z,0.40
2019-03-19T00:51:30.032Z,0.50
2019-03-19T00:53:59.964Z,0.40
2019-03-19T00:56:29.894Z,0.40
2019-03-19T00:59:00.251Z,0.20
2019-03-19T01:01:30.156Z,0.47
2019-03-19T01:04:00.083Z,0.50
2019-03-19T01:06:30.092Z,0.33
2019-03-19T01:09:00.134Z,0.50
2019-03-19T01:11:30.073Z,0.40
2019-03-19T01:14:00.337Z,0.40
2019-03-19T01:16:30.192Z,0.37
2019-03-19T01:19:00.161Z,0.77
2019-03-19T01:21:30.226Z,0.30
2019-03-19T01:24:00.125Z,0.50
2019-03-19T01:26:30.077Z,0.63
2019-03-19T01:29:00.293Z,0.40
2019-03-19T01:31:30.193Z,0.40
2019-03-19T01:34:00.158Z,0.30
2019-03-19T01:36:30.136Z,0.20
2019-03-19T01:39:00.409Z,0.60
2019-03-19T01:41:30.331Z,0.40
2019-03-19T01:44:01.160Z,0.40
2019-03-19T01:46:31.049Z,0.30
2019-03-19T01:49:00.988Z,0.30
2019-03-19T01:51:30.918Z,0.40
2019-03-19T01:54:00.875Z,0.40
2019-03-19T01:56:30.753Z,0.40
2019-03-19T01:59:01.064Z,0.30
2019-03-19T02:01:30.982Z,0.37
2019-03-19T02:04:00.910Z,0.23
2019-03-19T02:06:30.831Z,0.33
2019-03-19T02:09:00.734Z,0.53
2019-03-19T02:11:30.699Z,0.33
2019-03-19T02:14:00.619Z,0.37
2019-03-19T02:16:30.856Z,0.40
2019-03-19T02:19:00.778Z,0.30
2019-03-19T02:21:30.727Z,0.30
2019-03-19T02:24:00.648Z,0.30
2019-03-19T02:26:30.521Z,0.60
2019-03-19T02:29:00.510Z,0.47
2019-03-19T02:31:30.815Z,0.53
2019-03-19T02:34:00.865Z,0.20
2019-03-19T02:36:30.833Z,0.57
2019-03-19T02:39:00.698Z,0.50
2019-03-19T02:41:30.596Z,0.13
2019-03-19T02:44:00.649Z,0.40
2019-03-19T02:46:30.896Z,0.20
2019-03-19T02:49:00.761Z,0.23
2019-03-19T02:51:30.710Z,0.40
2019-03-19T02:54:00.642Z,0.47
2019-03-19T02:56:33.127Z,0.20
2019-03-19T02:59:02.507Z,0.50
2019-03-19T03:01:32.782Z,0.30
2019-03-19T03:04:02.689Z,0.30
2019-03-19T03:06:32.692Z,0.30
2019-03-19T03:09:02.647Z,0.60
2019-03-19T03:11:32.576Z,0.30
2019-03-19T03:14:02.503Z,0.27
2019-03-19T03:16:32.719Z,0.40
2019-03-19T03:19:02.624Z,0.60
2019-03-19T03:21:34.645Z,0.30
2019-03-19T03:24:04.364Z,0.57
2019-03-19T03:26:46.913Z,0.20
2019-03-19T03:29:06.071Z,0.40
2019-03-19T03:31:36.373Z,0.17
2019-03-19T03:34:06.533Z,0.20
2019-03-19T03:36:36.409Z,0.40
2019-03-19T03:39:08.595Z,0.20
2019-03-19T03:41:38.513Z,0.37
2019-03-19T03:44:08.659Z,0.50
2019-03-19T03:46:39.049Z,0.40
2019-03-19T03:49:09.186Z,0.40
2019-03-19T03:51:39.135Z,0.20
2019-03-19T03:54:09.158Z,0.30
2019-03-19T03:56:39.089Z,0.20
2019-03-19T03:59:09.497Z,0.30
2019-03-19T04:01:39.624Z,0.30
2019-03-19T04:04:09.603Z,0.30
2019-03-19T04:06:39.714Z,0.30
2019-03-19T04:09:09.650Z,0.40
2019-03-19T04:11:39.528Z,0.63
2019-03-19T04:14:09.491Z,0.30
2019-03-19T04:16:39.677Z,0.30
2019-03-19T04:19:09.729Z,0.40
2019-03-19T04:21:39.681Z,0.30
2019-03-19T04:24:09.675Z,0.37
2019-03-19T04:26:39.567Z,0.53
2019-03-19T04:29:09.534Z,0.30
2019-03-19T04:31:39.778Z,0.37
2019-03-19T04:34:09.663Z,0.30
2019-03-19T04:36:39.640Z,0.37
2019-03-19T04:39:09.871Z,0.63
2019-03-19T04:41:39.896Z,0.30
2019-03-19T04:44:09.864Z,0.30
2019-03-19T04:46:40.035Z,0.30
2019-03-19T04:49:10.084Z,0.40
2019-03-19T04:51:40.116Z,0.40
2019-03-19T04:54:10.073Z,0.67
2019-03-19T04:56:39.994Z,0.30
2019-03-19T04:59:09.912Z,0.10
2019-03-19T05:01:39.799Z,0.30
2019-03-19T05:04:10.130Z,0.40
2019-03-19T05:06:40.090Z,0.33
2019-03-19T05:09:09.970Z,0.23
2019-03-19T05:11:39.971Z,0.60
2019-03-19T05:14:09.843Z,0.50
2019-03-19T05:16:39.750Z,0.40
2019-03-19T05:19:10.011Z,0.57
2019-03-19T05:21:39.929Z,0.30
2019-03-19T05:24:09.830Z,0.50
2019-03-19T05:26:39.736Z,0.40
2019-03-19T05:29:09.684Z,0.30
2019-03-19T05:31:39.599Z,0.33
2019-03-19T05:34:09.961Z,0.30
2019-03-19T05:36:39.878Z,0.50
2019-03-19T05:39:09.805Z,0.40
2019-03-19T05:41:39.730Z,0.40
2019-03-19T05:44:09.641Z,0.17
2019-03-19T05:46:39.532Z,0.60
2019-03-19T05:49:09.886Z,0.20
2019-03-19T05:51:39.763Z,0.33
2019-03-19T05:54:09.684Z,0.50
2019-03-19T05:56:39.625Z,0.30
2019-03-19T05:59:09.593Z,0.30
2019-03-19T06:01:39.812Z,0.43
2019-03-19T06:04:09.760Z,0.30
2019-03-19T06:06:39.684Z,0.37
2019-03-19T06:09:10.180Z,0.43
2019-03-19T06:11:40.148Z,0.40
2019-03-19T06:14:10.028Z,0.40
2019-03-19T06:16:39.949Z,0.40
2019-03-19T06:19:09.893Z,0.40
2019-03-19T06:21:39.891Z,0.40
2019-03-19T06:24:09.825Z,0.23
2019-03-19T06:26:39.818Z,0.40
2019-03-19T06:29:09.719Z,0.30
2019-03-19T06:31:39.617Z,0.17
2019-03-19T06:34:09.675Z,0.47
2019-03-19T06:36:39.566Z,0.30
2019-03-19T06:39:09.807Z,0.57
2019-03-19T06:41:39.772Z,0.30
2019-03-19T06:44:09.650Z,0.30
2019-03-19T06:46:39.583Z,0.20
2019-03-19T06:49:09.529Z,0.37
2019-03-19T06:51:39.901Z,0.30
2019-03-19T06:54:09.806Z,1.13
2019-03-19T06:56:39.745Z,0.60
2019-03-19T06:59:09.709Z,0.40
2019-03-19T07:01:39.697Z,0.30
2019-03-19T07:04:09.626Z,0.47
2019-03-19T07:06:39.612Z,0.33
2019-03-19T07:09:10.417Z,0.50
2019-03-19T07:11:40.369Z,0.20
2019-03-19T07:14:10.301Z,0.40
2019-03-19T07:16:40.270Z,0.60
2019-03-19T07:19:10.190Z,0.40
2019-03-19T07:21:40.513Z,0.40
2019-03-19T07:24:10.561Z,0.20
2019-03-19T07:26:40.537Z,0.50
2019-03-19T07:29:10.501Z,0.60
2019-03-19T07:31:40.435Z,0.40
2019-03-19T07:34:10.402Z,0.50
2019-03-19T07:36:40.639Z,0.30
2019-03-19T07:39:10.523Z,0.40
2019-03-19T07:41:40.460Z,0.60
2019-03-19T07:44:10.362Z,0.30
2019-03-19T07:46:40.298Z,0.50
2019-03-19T07:49:10.259Z,0.50
2019-03-19T07:51:40.200Z,0.40
2019-03-19T07:54:10.107Z,0.40
2019-03-19T07:56:40.030Z,0.37
2019-03-19T07:59:09.996Z,0.30
2019-03-19T08:01:39.917Z,0.50
2019-03-19T08:04:09.860Z,0.47
2019-03-19T08:06:39.786Z,0.23
2019-03-19T08:09:10.088Z,0.50
2019-03-19T08:11:40.033Z,0.50
2019-03-19T08:14:10.099Z,0.50
2019-03-19T08:16:40.053Z,0.53
2019-03-19T08:19:10.018Z,0.60
2019-03-19T08:21:39.991Z,0.50
2019-03-19T08:24:10.337Z,0.30
2019-03-19T08:26:40.289Z,0.30
2019-03-19T08:29:10.155Z,0.10
2019-03-19T08:31:40.082Z,0.20
2019-03-19T08:34:09.992Z,0.40
2019-03-19T08:36:39.898Z,0.20
2019-03-19T08:39:10.481Z,0.30
2019-03-19T08:41:40.481Z,0.40
2019-03-19T08:44:10.376Z,0.30
2019-03-19T08:46:40.235Z,0.20
2019-03-19T08:49:10.203Z,0.20
2019-03-19T08:51:40.106Z,0.20
2019-03-19T08:54:10.482Z,0.20
2019-03-19T08:56:40.465Z,0.47
2019-03-19T08:59:10.359Z,0.30
2019-03-19T09:01:40.279Z,0.30
2019-03-19T09:04:10.361Z,0.20
2019-03-19T09:06:40.272Z,0.20
2019-03-19T09:09:10.804Z,0.40
2019-03-19T09:11:41.206Z,0.47
2019-03-19T09:14:11.082Z,0.37
2019-03-19T09:16:40.966Z,0.30
2019-03-19T09:19:11.183Z,0.40
2019-03-19T09:21:41.155Z,0.33
2019-03-19T09:24:11.047Z,0.10
2019-03-19T09:26:41.426Z,0.30
2019-03-19T09:29:16.887Z,0.20
2019-03-19T09:31:43.145Z,0.23
2019-03-19T09:34:13.116Z,0.43
2019-03-19T09:36:42.991Z,0.30
2019-03-19T09:39:13.226Z,0.30
2019-03-19T09:41:43.544Z,0.20
2019-03-19T09:44:13.444Z,0.33
2019-03-19T09:46:43.365Z,0.43
2019-03-19T09:49:13.296Z,0.27
2019-03-19T09:51:43.215Z,0.33
2019-03-19T09:54:13.568Z,0.33
2019-03-19T09:56:43.872Z,0.30
2019-03-19T09:59:13.767Z,0.30
2019-03-19T10:01:43.671Z,0.10
2019-03-19T10:04:13.625Z,0.20
2019-03-19T10:06:43.559Z,0.30
2019-03-19T10:09:13.482Z,0.50
2019-03-19T10:11:43.795Z,0.40
2019-03-19T10:14:13.648Z,0.50
2019-03-19T10:16:43.542Z,0.30
2019-03-19T10:19:13.566Z,0.50
2019-03-19T10:21:43.512Z,0.47
2019-03-19T10:24:13.445Z,0.40
2019-03-19T10:26:43.805Z,0.37
2019-03-19T10:29:13.711Z,0.30
2019-03-19T10:31:43.583Z,0.80
2019-03-19T10:34:13.548Z,0.47
2019-03-19T10:36:43.489Z,0.30
2019-03-19T10:39:13.377Z,0.30
2019-03-19T10:41:43.705Z,0.40
2019-03-19T10:44:13.794Z,0.27
2019-03-19T10:46:43.707Z,0.20
2019-03-19T10:49:13.622Z,0.37
2019-03-19T10:51:43.543Z,0.30
2019-03-19T10:54:13.446Z,0.40
2019-03-19T10:56:43.377Z,0.30
2019-03-19T10:59:13.630Z,0.17
2019-03-19T11:01:43.514Z,0.20
2019-03-19T11:04:13.453Z,0.23
2019-03-19T11:06:43.365Z,0.30
2019-03-19T11:09:13.308Z,0.20
2019-03-19T11:11:43.258Z,0.20
2019-03-19T11:14:13.540Z,0.20
2019-03-19T11:16:43.430Z,0.27
2019-03-19T11:19:13.355Z,0.30
2019-03-19T11:21:43.239Z,0.17
2019-03-19T11:24:13.157Z,0.20
2019-03-19T11:26:43.129Z,0.40
2019-03-19T11:29:13.335Z,0.50
2019-03-19T11:31:43.210Z,0.20
2019-03-19T11:34:13.166Z,0.30
2019-03-19T11:36:43.088Z,0.40
2019-03-19T11:39:13.005Z,0.20
2019-03-19T11:41:42.966Z,0.10
2019-03-19T11:44:12.892Z,0.40
2019-03-19T11:46:42.778Z,0.30
2019-03-19T11:49:12.721Z,0.10
2019-03-19T11:51:42.626Z,0.50
2019-03-19T11:54:12.516Z,0.13
2019-03-19T11:56:42.499Z,0.30
2019-03-19T11:59:12.509Z,0.23
2019-03-19T12:01:42.777Z,0.10
2019-03-19T12:04:12.729Z,0.30
2019-03-19T12:06:42.607Z,0.20
2019-03-19T12:09:12.493Z,0.30
2019-03-19T12:11:42.430Z,0.13
2019-03-19T12:14:12.645Z,0.30
2019-03-19T12:16:42.907Z,0.40
2019-03-19T12:19:12.811Z,0.27
2019-03-19T12:21:42.675Z,0.20
2019-03-19T12:24:12.602Z,0.30
2019-03-19T12:26:42.634Z,0.30
2019-03-19T12:29:12.530Z,0.20
2019-03-19T12:31:43.276Z,0.20
2019-03-19T12:34:13.208Z,0.20
2019-03-19T12:36:43.066Z,0.30
2019-03-19T12:39:12.981Z,0.20
2019-03-19T12:41:42.939Z,0.30
2019-03-19T12:44:12.792Z,0.43
2019-03-19T12:46:43.178Z,0.30
2019-03-19T12:49:13.161Z,0.20
2019-03-19T12:51:43.056Z,0.20
2019-03-19T12:54:12.966Z,0.40
2019-03-19T12:56:42.900Z,0.30
2019-03-19T12:59:20.126Z,0.30
2019-03-19T13:01:44.895Z,0.20
2019-03-19T13:04:14.825Z,0.40
2019-03-19T13:06:44.764Z,0.30
2019-03-19T13:09:14.656Z,0.20
2019-03-19T13:11:44.640Z,0.20
2019-03-19T13:14:14.544Z,0.30
2019-03-19T13:16:44.922Z,0.20
2019-03-19T13:19:14.856Z,0.20
2019-03-19T13:21:44.771Z,0.27
2019-03-19T13:24:17.162Z,0.40
2019-03-19T13:26:46.317Z,0.20
2019-03-19T13:29:16.252Z,0.20
2019-03-19T13:31:46.577Z,0.20
2019-03-19T13:34:16.501Z,0.10
2019-03-19T13:36:46.389Z,0.30
2019-03-19T13:39:16.307Z,0.30
2019-03-19T13:41:46.274Z,0.20
2019-03-19T13:44:16.159Z,0.20
2019-03-19T13:46:46.347Z,0.40
2019-03-19T13:49:16.352Z,0.20
2019-03-19T13:51:46.239Z,0.33
2019-03-19T13:54:16.845Z,0.20
2019-03-19T13:56:46.950Z,0.30
2019-03-19T13:59:16.835Z,0.20
2019-03-19T14:01:46.728Z,0.10
2019-03-19T14:04:18.001Z,0.10
2019-03-19T14:06:47.921Z,0.30
2019-03-19T14:09:17.984Z,0.00
2019-03-19T14:11:47.939Z,0.10
2019-03-19T14:14:17.950Z,0.20
2019-03-19T14:16:47.906Z,0.50
2019-03-19T14:19:17.925Z,0.17
2019-03-19T14:21:47.812Z,0.20
2019-03-19T14:24:17.767Z,0.25
2019-03-19T14:26:49.490Z,0.50
2019-03-19T14:29:19.291Z,0.40
2019-03-19T14:31:49.233Z,0.30
2019-03-19T14:34:19.543Z,0.27
2019-03-19T14:36:49.436Z,0.20
2019-03-19T14:39:19.370Z,0.07
2019-03-19T14:41:49.416Z,0.20
2019-03-19T14:44:21.768Z,0.20
2019-03-19T14:46:51.299Z,0.20
2019-03-19T14:49:21.902Z,0.20
2019-03-19T14:51:51.796Z,0.20
2019-03-19T14:54:21.716Z,0.23
2019-03-19T14:56:51.672Z,0.30
2019-03-19T14:59:21.612Z,0.30
2019-03-19T15:01:51.531Z,0.30
2019-03-19T15:04:21.920Z,0.40
2019-03-19T15:06:52.180Z,0.20
2019-03-19T15:09:22.128Z,0.10
2019-03-19T15:11:52.063Z,0.30
2019-03-19T15:14:22.101Z,0.27
2019-03-19T15:16:52.029Z,0.30
2019-03-19T15:19:22.361Z,0.40
2019-03-19T15:21:52.275Z,0.20
2019-03-19T15:24:22.244Z,0.23
2019-03-19T15:26:52.188Z,0.20
2019-03-19T15:29:22.074Z,0.30
2019-03-19T15:31:52.072Z,0.27
2019-03-19T15:34:22.570Z,0.20
2019-03-19T15:36:52.504Z,0.20
2019-03-19T15:39:22.416Z,0.20
2019-03-19T15:41:52.348Z,0.10
2019-03-19T15:44:22.256Z,0.10
2019-03-19T15:46:52.547Z,0.10
2019-03-19T15:49:22.799Z,0.30
2019-03-19T15:51:52.731Z,0.10
2019-03-19T15:54:22.637Z,0.20
2019-03-19T15:56:52.571Z,0.23
2019-03-19T15:59:22.459Z,0.27
2019-03-19T16:01:52.384Z,0.30
2019-03-19T16:04:22.777Z,0.20
2019-03-19T16:06:52.683Z,0.30
2019-03-19T16:09:22.674Z,0.20
2019-03-19T16:11:52.574Z,0.20
2019-03-19T16:14:22.524Z,0.20
2019-03-19T16:16:52.488Z,0.20
2019-03-19T16:19:22.346Z,0.03
2019-03-19T16:21:52.288Z,0.20
2019-03-19T16:24:22.278Z,0.20
2019-03-19T16:26:52.339Z,0.07
2019-03-19T16:29:22.222Z,0.20
2019-03-19T16:31:52.281Z,0.20
2019-03-19T16:34:22.163Z,0.10
2019-03-19T16:36:52.533Z,0.43
2019-03-19T16:39:22.517Z,0.27
2019-03-19T16:41:52.447Z,0.10
2019-03-19T16:44:22.297Z,0.27
2019-03-19T16:46:52.274Z,0.20
2019-03-19T16:49:22.212Z,0.20
2019-03-19T16:51:52.606Z,0.20
2019-03-19T16:54:22.511Z,0.30
2019-03-19T16:56:52.525Z,0.40
2019-03-19T16:59:22.460Z,0.20
2019-03-19T17:02:01.510Z,0.10
2019-03-19T17:04:24.632Z,0.23
2019-03-19T17:06:55.072Z,0.20
2019-03-19T17:09:25.029Z,0.20
2019-03-19T17:11:54.953Z,0.13
2019-03-19T17:14:24.895Z,0.10
2019-03-19T17:16:54.875Z,0.20
2019-03-19T17:19:25.034Z,0.07
2019-03-19T17:21:55.325Z,0.10
2019-03-19T17:24:25.304Z,0.30
2019-03-19T17:26:55.239Z,0.20
2019-03-19T17:29:25.122Z,0.30
2019-03-19T17:31:55.134Z,0.43
2019-03-19T17:34:24.994Z,0.37
2019-03-19T17:36:55.472Z,0.30
2019-03-19T17:39:25.437Z,0.40
2019-03-19T17:41:55.463Z,0.30
2019-03-19T17:44:25.433Z,0.30
2019-03-19T17:46:55.382Z,0.10
2019-03-19T17:49:25.302Z,0.23
2019-03-19T17:51:55.475Z,0.30
2019-03-19T17:54:25.410Z,0.10
2019-03-19T17:56:55.690Z,0.20
2019-03-19T17:59:25.593Z,0.20
2019-03-19T18:01:55.594Z,0.20
2019-03-19T18:04:25.692Z,0.30
2019-03-19T18:06:56.034Z,0.30
2019-03-19T18:09:25.970Z,0.20
2019-03-19T18:11:56.013Z,0.33
2019-03-19T18:14:26.229Z,0.20
2019-03-19T18:16:56.286Z,0.20
2019-03-19T18:19:26.160Z,0.30
2019-03-19T18:21:56.584Z,0.17
2019-03-19T18:24:26.501Z,0.20
2019-03-19T18:26:56.550Z,0.20
2019-03-19T18:29:26.476Z,0.27
2019-03-19T18:31:56.548Z,0.23
2019-03-19T18:34:26.761Z,0.27
2019-03-19T18:36:56.639Z,0.20
2019-03-19T18:39:26.595Z,0.30
2019-03-19T18:41:56.504Z,0.33
2019-03-19T18:44:26.399Z,0.60
2019-03-19T18:46:56.420Z,0.47
2019-03-19T18:49:26.427Z,0.47
2019-03-19T18:51:56.503Z,0.30
2019-03-19T18:54:26.839Z,0.20
2019-03-19T18:56:56.738Z,0.30
2019-03-19T18:59:26.650Z,0.10
2019-03-19T19:01:56.632Z,0.40
2019-03-19T19:04:26.534Z,0.40
2019-03-19T19:06:56.419Z,0.30
2019-03-19T19:09:26.766Z,0.20
2019-03-19T19:11:56.655Z,0.37
2019-03-19T19:14:26.572Z,0.40
2019-03-19T19:16:56.545Z,0.30
2019-03-19T19:19:26.478Z,0.30
2019-03-19T19:21:56.387Z,0.40
2019-03-19T19:24:26.865Z,0.30
2019-03-19T19:26:56.802Z,0.37
2019-03-19T19:29:26.668Z,0.50
2019-03-19T19:31:56.608Z,0.30
2019-03-19T19:34:26.509Z,0.30
2019-03-19T19:36:56.411Z,0.40
2019-03-19T19:39:26.679Z,0.80
2019-03-19T19:41:56.620Z,0.50
2019-03-19T19:44:26.537Z,0.50
2019-03-19T19:46:56.472Z,0.40
2019-03-19T19:49:26.375Z,0.40
2019-03-19T19:51:56.258Z,0.50
2019-03-19T19:54:26.231Z,0.30
2019-03-19T19:56:56.196Z,0.20
2019-03-19T19:59:26.120Z,0.20
2019-03-19T20:01:56.081Z,0.40
2019-03-19T20:04:25.987Z,0.47
2019-03-19T20:06:55.909Z,0.40
2019-03-19T20:09:25.883Z,0.30
2019-03-19T20:11:55.797Z,0.37
2019-03-19T20:14:25.738Z,0.23
2019-03-19T20:16:55.692Z,0.40
2019-03-19T20:19:25.575Z,0.60
2019-03-19T20:21:55.454Z,0.30
2019-03-19T20:24:25.438Z,0.37
2019-03-19T20:26:56.368Z,0.30
2019-03-19T20:29:26.289Z,0.30
2019-03-19T20:31:56.355Z,0.40
2019-03-19T20:34:26.220Z,0.30
2019-03-19T20:36:56.112Z,0.30
2019-03-19T20:39:26.062Z,0.30
2019-03-19T20:41:56.807Z,0.40
2019-03-19T20:44:26.709Z,0.50
2019-03-19T20:46:56.668Z,0.63
2019-03-19T20:49:26.580Z,0.67
2019-03-19T20:51:56.510Z,0.57
2019-03-19T20:54:26.472Z,0.40
2019-03-19T20:56:56.724Z,0.40
2019-03-19T20:59:26.676Z,0.30
2019-03-19T21:01:56.643Z,0.50
2019-03-19T21:04:29.607Z,0.43
2019-03-19T21:06:58.075Z,0.47
2019-03-19T21:09:28.058Z,0.40
2019-03-19T21:11:58.277Z,0.30
2019-03-19T21:14:28.196Z,0.47
2019-03-19T21:16:58.157Z,0.50
2019-03-19T21:19:28.056Z,0.40
2019-03-19T21:22:00.368Z,0.43
2019-03-19T21:24:29.559Z,0.50
2019-03-19T21:26:59.934Z,0.40
2019-03-19T21:29:29.896Z,0.30
2019-03-19T21:31:59.851Z,0.60
2019-03-19T21:34:29.722Z,0.50
2019-03-19T21:36:59.631Z,0.70
2019-03-19T21:39:29.590Z,0.50
2019-03-19T21:42:00.447Z,0.40
2019-03-19T21:44:30.316Z,0.70
2019-03-19T21:47:00.252Z,0.53
2019-03-19T21:49:30.168Z,0.50
2019-03-19T21:52:00.132Z,0.60
2019-03-19T21:54:30.162Z,0.53
2019-03-19T21:57:00.722Z,0.53
2019-03-19T21:59:30.621Z,0.60
2019-03-19T22:02:00.546Z,0.87
2019-03-19T22:04:30.490Z,0.50
2019-03-19T22:07:00.389Z,0.23
2019-03-19T22:09:30.336Z,0.50
2019-03-19T22:12:00.645Z,0.60
2019-03-19T22:14:30.584Z,0.60
2019-03-19T22:17:00.538Z,0.77
2019-03-19T22:19:30.420Z,0.70
2019-03-19T22:22:00.320Z,0.77
2019-03-19T22:24:30.288Z,1.00
2019-03-19T22:27:00.204Z,1.10
2019-03-19T22:29:30.558Z,0.97
2019-03-19T22:32:00.635Z,0.73
2019-03-19T22:34:30.512Z,0.80
2019-03-19T22:37:00.428Z,0.80
2019-03-19T22:39:30.404Z,0.73
2019-03-19T22:42:00.327Z,0.93
2019-03-19T22:44:30.522Z,1.20
2019-03-19T22:47:00.496Z,0.70
2019-03-19T22:49:30.415Z,1.07
2019-03-19T22:52:00.421Z,0.80
2019-03-19T22:54:30.403Z,1.07
2019-03-19T22:57:00.304Z,0.90
2019-03-19T22:59:30.582Z,0.90
2019-03-19T23:02:00.503Z,0.83
2019-03-19T23:04:30.411Z,0.90
2019-03-19T23:07:00.322Z,1.00
2019-03-19T23:09:30.266Z,0.90
2019-03-19T23:12:00.181Z,1.43
2019-03-19T23:14:30.484Z,1.57
2019-03-19T23:17:00.625Z,1.47
2019-03-19T23:19:30.523Z,1.20
2019-03-19T23:22:00.461Z,1.30
2019-03-19T23:24:30.431Z,1.03
2019-03-19T23:27:00.326Z,1.60
2019-03-19T23:29:30.241Z,1.00
2019-03-19T23:32:00.657Z,1.70
2019-03-19T23:34:38.205Z,1.57
2019-03-19T23:37:02.097Z,1.50
2019-03-19T23:39:32.077Z,1.30
2019-03-19T23:42:02.116Z,1.87
2019-03-19T23:44:31.998Z,1.83
2019-03-19T23:47:02.311Z,1.70
2019-03-19T23:49:32.207Z,1.63
2019-03-19T23:52:02.089Z,1.80
2019-03-19T23:54:32.360Z,2.13
2019-03-19T23:57:02.274Z,1.40
2019-03-19T23:59:32.187Z,1.20
